Time;durP1;ratioP1;P1;durP2;ratioP2;P2;SDS_P1;SDS_P2;PMS_P1;PMS_P2;Temp;Humidity;BMP_temperature;BMP_pressure;BME280_temperature;BME280_humidity;BME280_pressure;Samples;Min_cycle;Max_cycle;Signal;HPM_P1;HPM_P2
2024/04/16 00:00:21;;;;;;;0.47;0.47;;;;;;;4.01;100.00;98298.25;5459495;26;20891;-58
2024/04/16 00:02:47;;;;;;;0.50;0.50;;;;;;;4.00;100.00;98301.94;5459448;26;19994;-59
2024/04/16 00:05:16;;;;;;;0.50;0.50;;;;;;;3.98;100.00;98306.66;5452574;26;20090;-58
2024/04/16 00:07:43;;;;;;;0.50;0.50;;;;;;;3.95;100.00;98299.16;5450314;26;19999;-58
2024/04/16 00:10:13;;;;;;;0.40;0.40;;;;;;;4.02;100.00;98299.91;5454379;26;20014;-58
2024/04/16 00:12:42;;;;;;;0.40;0.40;;;;;;;4.03;100.00;98300.69;5455171;26;20029;-58
2024/04/16 00:15:29;;;;;;;0.52;0.52;;;;;;;4.19;100.00;98304.56;5442531;26;20603;-58
2024/04/16 00:17:59;;;;;;;0.50;0.50;;;;;;;4.15;100.00;98306.06;5461011;26;20052;-58
2024/04/16 00:20:25;;;;;;;0.50;0.50;;;;;;;3.99;100.00;98297.66;5456382;26;20014;-59
2024/04/16 00:22:54;;;;;;;0.45;0.45;;;;;;;3.98;100.00;98296.06;5450419;26;20002;-58
2024/04/16 00:25:26;;;;;;;0.50;0.50;;;;;;;3.96;100.00;98294.66;5450530;26;20010;-57
2024/04/16 00:27:55;;;;;;;0.40;0.40;;;;;;;3.93;100.00;98295.13;5460423;26;19998;-58
2024/04/16 00:30:21;;;;;;;0.47;0.47;;;;;;;3.97;100.00;98281.19;5455649;26;19998;-58
2024/04/16 00:32:53;;;;;;;0.50;0.50;;;;;;;3.88;100.00;98271.91;5456243;26;20473;-58
2024/04/16 00:35:19;;;;;;;0.40;0.40;;;;;;;3.86;100.00;98284.56;5459005;26;20025;-59
2024/04/16 00:37:47;;;;;;;0.52;0.52;;;;;;;3.93;100.00;98280.00;5454875;26;20020;-58
2024/04/16 00:40:14;;;;;;;0.40;0.40;;;;;;;3.96;100.00;98270.81;5456574;26;20002;-58
2024/04/16 00:42:43;;;;;;;0.50;0.50;;;;;;;3.94;100.00;98271.00;5456242;26;20029;-58
2024/04/16 00:45:09;;;;;;;0.50;0.50;;;;;;;4.08;100.00;98263.72;5448969;26;20002;-58
2024/04/16 00:47:38;;;;;;;0.60;0.60;;;;;;;4.01;100.00;98261.13;5450400;26;20002;-59
2024/04/16 00:50:12;;;;;;;0.40;0.40;;;;;;;3.88;100.00;98248.84;5426572;26;20022;-58
2024/04/16 00:52:41;;;;;;;0.50;0.50;;;;;;;3.78;100.00;98243.28;5451166;26;19998;-58
2024/04/16 00:55:07;;;;;;;0.43;0.43;;;;;;;3.88;100.00;98250.72;5418785;26;20002;-58
2024/04/16 00:57:35;;;;;;;0.47;0.47;;;;;;;3.77;100.00;98254.09;5457372;26;20097;-58
2024/04/16 01:00:04;;;;;;;0.50;0.50;;;;;;;3.73;100.00;98244.97;5461361;26;20595;-58
2024/04/16 01:02:33;;;;;;;0.45;0.45;;;;;;;3.61;100.00;98245.72;5436424;26;20393;-58
2024/04/16 01:04:59;;;;;;;0.50;0.50;;;;;;;3.61;100.00;98248.34;5465557;26;20002;-58
2024/04/16 01:07:30;;;;;;;0.52;0.52;;;;;;;3.70;100.00;98254.19;5457771;26;20015;-57
2024/04/16 01:09:57;;;;;;;0.50;0.50;;;;;;;3.59;100.00;98247.75;5463157;26;20002;-58
2024/04/16 01:12:25;;;;;;;0.40;0.40;;;;;;;3.57;100.00;98255.16;5444600;26;20024;-58
2024/04/16 01:14:52;;;;;;;0.50;0.50;;;;;;;3.50;100.00;98264.19;5453701;26;20002;-58
2024/04/16 01:17:21;;;;;;;0.50;0.50;;;;;;;3.31;100.00;98260.72;5453321;26;20016;-58
2024/04/16 01:19:47;;;;;;;0.50;0.50;;;;;;;3.21;100.00;98264.66;5462061;26;20013;-58
2024/04/16 01:22:16;;;;;;;0.50;0.50;;;;;;;3.24;100.00;98263.41;5473922;26;20541;-58
2024/04/16 01:24:45;;;;;;;0.40;0.40;;;;;;;3.23;100.00;98265.25;5443762;26;20018;-58
2024/04/16 01:27:14;;;;;;;0.50;0.50;;;;;;;3.01;100.00;98264.03;5448733;26;20547;-58
2024/04/16 01:29:43;;;;;;;0.60;0.60;;;;;;;3.06;100.00;98266.84;5463815;26;20038;-58
2024/04/16 01:32:13;;;;;;;0.52;0.52;;;;;;;2.86;100.00;98266.22;5453491;26;20002;-59
2024/04/16 01:34:39;;;;;;;0.50;0.50;;;;;;;2.80;100.00;98271.34;5456988;26;19999;-58
2024/04/16 01:37:08;;;;;;;0.60;0.60;;;;;;;2.72;100.00;98278.72;5445021;26;20017;-58
2024/04/16 01:39:34;;;;;;;0.60;0.60;;;;;;;3.06;100.00;98269.50;5454177;26;20908;-58
2024/04/16 01:42:06;;;;;;;0.50;0.50;;;;;;;2.74;100.00;98266.91;5442728;26;20034;-58
2024/04/16 01:44:32;;;;;;;0.60;0.60;;;;;;;3.03;100.00;98269.94;5446785;26;20550;-58
2024/04/16 01:47:02;;;;;;;0.60;0.60;;;;;;;3.08;100.00;98266.63;5445187;26;20544;-58
2024/04/16 01:49:28;;;;;;;0.50;0.50;;;;;;;3.23;100.00;98252.03;5460409;26;20010;-58
2024/04/16 01:51:57;;;;;;;0.60;0.60;;;;;;;3.16;100.00;98264.50;5443593;26;20007;-58
2024/04/16 01:54:24;;;;;;;0.60;0.60;;;;;;;2.90;100.00;98264.75;5453836;26;19999;-58
2024/04/16 01:56:52;;;;;;;0.60;0.60;;;;;;;2.78;100.00;98248.75;5454800;26;20042;-58
2024/04/16 01:59:22;;;;;;;0.57;0.57;;;;;;;2.94;100.00;98250.84;5435896;26;20002;-58
2024/04/16 02:01:51;;;;;;;0.60;0.60;;;;;;;2.87;100.00;98255.41;5463746;26;20017;-58
2024/04/16 02:04:18;;;;;;;0.60;0.60;;;;;;;2.79;100.00;98248.53;5463965;26;20006;-58
2024/04/16 02:06:47;;;;;;;0.60;0.60;;;;;;;2.85;100.00;98254.00;5454776;26;20002;-58
2024/04/16 02:09:13;;;;;;;0.60;0.60;;;;;;;2.60;100.00;98246.88;5457349;26;20840;-59
2024/04/16 02:11:43;;;;;;;0.57;0.57;;;;;;;2.66;100.00;98253.94;5457684;26;20006;-58
2024/04/16 02:14:09;;;;;;;0.50;0.50;;;;;;;2.66;100.00;98243.34;5453258;26;19999;-58
2024/04/16 02:16:40;;;;;;;0.70;0.70;;;;;;;2.66;100.00;98250.50;5443851;26;20346;-58
2024/04/16 02:19:09;;;;;;;0.52;0.52;;;;;;;2.60;100.00;98249.53;5461138;26;20010;-58
2024/04/16 02:21:38;;;;;;;0.60;0.60;;;;;;;2.71;100.00;98235.56;5456277;26;19998;-58
2024/04/16 02:24:04;;;;;;;0.47;0.47;;;;;;;2.57;100.00;98226.94;5463041;26;20566;-58
2024/04/16 02:26:33;;;;;;;0.60;0.60;;;;;;;2.56;100.00;98233.25;5428161;26;20006;-58
2024/04/16 02:29:02;;;;;;;0.55;0.55;;;;;;;2.74;100.00;98229.84;5455935;26;20059;-58
2024/04/16 02:31:37;;;;;;;0.50;0.50;;;;;;;2.65;100.00;98236.44;5444821;26;20079;-59
2024/04/16 02:34:06;;;;;;;0.50;0.50;;;;;;;2.67;100.00;98220.34;5459224;26;20003;-58
2024/04/16 02:36:32;;;;;;;0.60;0.60;;;;;;;2.66;100.00;98222.19;5450501;26;20017;-58
2024/04/16 02:39:01;;;;;;;0.60;0.60;;;;;;;2.73;100.00;98215.00;5460519;26;20017;-58
2024/04/16 02:41:27;;;;;;;0.68;0.68;;;;;;;2.76;100.00;98216.41;5459778;26;20002;-58
2024/04/16 02:43:56;;;;;;;0.55;0.55;;;;;;;2.71;100.00;98209.13;5463166;26;20014;-58
2024/04/16 02:46:22;;;;;;;0.60;0.60;;;;;;;2.53;100.00;98203.78;5455189;26;19994;-58
2024/04/16 02:48:53;;;;;;;0.60;0.60;;;;;;;2.48;100.00;98193.03;5456729;26;20068;-58
2024/04/16 02:51:21;;;;;;;0.70;0.70;;;;;;;2.32;100.00;98189.91;5464310;26;20013;-59
2024/04/16 02:53:50;;;;;;;0.60;0.60;;;;;;;2.40;100.00;98190.63;5456575;26;20002;-59
2024/04/16 02:56:16;;;;;;;0.45;0.45;;;;;;;2.18;100.00;98188.38;5455137;26;20790;-58
2024/04/16 02:58:46;;;;;;;0.70;0.70;;;;;;;2.15;100.00;98186.16;5455010;26;20017;-58
2024/04/16 03:01:12;;;;;;;;;;;;;;;2.18;100.00;98182.28;5445990;26;20076;-58
2024/04/16 03:03:41;;;;;;;0.65;0.65;;;;;;;2.06;100.00;98179.50;5445193;26;19932;-58
2024/04/16 03:06:10;;;;;;;0.60;0.60;;;;;;;2.05;100.00;98183.19;5447452;26;20088;-58
2024/04/16 03:08:39;;;;;;;0.68;0.68;;;;;;;1.99;100.00;98189.28;5452523;26;20017;-58
2024/04/16 03:11:05;;;;;;;0.60;0.60;;;;;;;2.00;100.00;98175.03;5460590;26;20002;-58
2024/04/16 03:13:34;;;;;;;0.63;0.63;;;;;;;1.94;100.00;98182.81;5462777;26;19998;-58
2024/04/16 03:16:05;;;;;;;0.63;0.63;;;;;;;1.98;100.00;98185.84;5460313;26;19998;-58
2024/04/16 03:18:34;;;;;;;0.75;0.75;;;;;;;1.94;100.00;98197.84;5448828;26;20021;-58
2024/04/16 03:21:00;;;;;;;0.73;0.73;;;;;;;2.08;100.00;98188.03;5441138;26;20041;-58
2024/04/16 03:23:31;;;;;;;0.60;0.60;;;;;;;2.08;100.00;98188.03;5446544;26;20020;-58
2024/04/16 03:26:00;;;;;;;0.60;0.60;;;;;;;2.12;100.00;98189.19;5461074;26;19999;-58
2024/04/16 03:28:29;;;;;;;0.70;0.70;;;;;;;2.22;100.00;98184.28;5455898;26;20002;-58
2024/04/16 03:30:55;;;;;;;0.70;0.70;;;;;;;2.08;100.00;98185.38;5457317;26;20021;-58
2024/04/16 03:33:26;;;;;;;0.70;0.70;;;;;;;2.17;100.00;98181.44;5464994;26;19999;-58
2024/04/16 03:35:53;;;;;;;0.70;0.70;;;;;;;2.28;100.00;98177.31;5451420;26;20673;-58
2024/04/16 03:38:22;;;;;;;0.60;0.60;;;;;;;2.09;100.00;98164.00;5447320;26;20003;-58
2024/04/16 03:40:58;;;;;;;0.63;0.63;;;;;;;2.05;100.00;98159.38;5446310;26;20011;-58
2024/04/16 03:43:27;;;;;;;0.70;0.70;;;;;;;2.00;100.00;98154.72;5450923;26;20006;-58
2024/04/16 03:45:54;;;;;;;0.70;0.70;;;;;;;2.07;100.00;98159.97;5459056;26;20061;-58
2024/04/16 03:48:23;;;;;;;0.60;0.60;;;;;;;2.07;100.00;98152.88;5460134;26;20049;-59
2024/04/16 03:50:49;;;;;;;0.55;0.55;;;;;;;2.05;100.00;98149.63;5465896;26;20006;-59
2024/04/16 03:53:18;;;;;;;0.57;0.57;;;;;;;2.19;100.00;98146.88;5450975;26;20061;-59
2024/04/16 03:55:45;;;;;;;0.50;0.50;;;;;;;2.37;100.00;98147.75;5453398;26;20010;-58
2024/04/16 03:58:16;;;;;;;0.65;0.65;;;;;;;2.27;100.00;98138.66;5450131;26;20014;-58
2024/04/16 04:01:03;;;;;;;0.65;0.65;;;;;;;2.27;100.00;98141.31;5462754;26;20012;-58
2024/04/16 04:03:32;;;;;;;0.60;0.60;;;;;;;2.37;100.00;98131.06;5449011;26;20014;-58
2024/04/16 04:05:59;;;;;;;0.70;0.70;;;;;;;2.43;100.00;98132.84;5449572;26;20031;-58
2024/04/16 04:08:27;;;;;;;0.70;0.70;;;;;;;2.40;100.00;98135.09;5458761;26;20463;-58
2024/04/16 04:10:53;;;;;;;0.60;0.60;;;;;;;2.48;100.00;98140.94;5445003;26;19999;-59
2024/04/16 04:13:25;;;;;;;0.65;0.65;;;;;;;2.48;100.00;98134.84;5478087;26;20028;-59
2024/04/16 04:15:51;;;;;;;0.80;0.80;;;;;;;2.46;100.00;98144.84;5459294;26;20464;-58
2024/04/16 04:18:22;;;;;;;0.60;0.60;;;;;;;2.57;100.00;98134.38;5448384;26;20007;-58
2024/04/16 04:20:49;;;;;;;0.60;0.60;;;;;;;2.57;100.00;98139.66;5450848;26;20013;-58
2024/04/16 04:23:18;;;;;;;0.60;0.60;;;;;;;2.61;100.00;98136.56;5458337;26;20002;-58
2024/04/16 04:25:44;;;;;;;0.60;0.60;;;;;;;2.70;100.00;98125.50;5458793;26;19999;-59
2024/04/16 04:28:15;;;;;;;0.60;0.60;;;;;;;2.77;100.00;98131.53;5442008;26;20038;-58
2024/04/16 04:30:44;;;;;;;0.65;0.65;;;;;;;2.83;100.00;98126.38;5421333;26;22113;-59
2024/04/16 04:33:19;;;;;;;0.60;0.60;;;;;;;2.81;100.00;98122.09;5464134;26;20083;-58
2024/04/16 04:35:45;;;;;;;0.70;0.70;;;;;;;2.78;100.00;98130.50;5443692;26;20011;-59
2024/04/16 04:38:14;;;;;;;0.60;0.60;;;;;;;2.88;100.00;98110.66;5440879;26;20053;-58
2024/04/16 04:40:40;;;;;;;0.50;0.50;;;;;;;3.03;100.00;98121.69;5457661;26;20013;-59
2024/04/16 04:43:12;;;;;;;0.60;0.60;;;;;;;3.06;100.00;98126.53;5452014;26;20493;-59
2024/04/16 04:45:38;;;;;;;0.60;0.60;;;;;;;3.02;100.00;98120.06;5453286;26;20089;-59
2024/04/16 04:48:10;;;;;;;0.60;0.60;;;;;;;2.96;100.00;98110.34;5456684;26;20017;-59
2024/04/16 04:50:36;;;;;;;0.52;0.52;;;;;;;3.04;100.00;98118.00;5445663;26;20082;-58
2024/04/16 04:53:05;;;;;;;0.70;0.70;;;;;;;3.13;100.00;98121.97;5463431;26;20002;-58
2024/04/16 04:55:32;;;;;;;0.50;0.50;;;;;;;3.08;100.00;98103.31;5443515;26;20759;-59
2024/04/16 04:58:01;;;;;;;0.60;0.60;;;;;;;3.17;100.00;98109.91;5453334;26;20037;-59
2024/04/16 05:00:27;;;;;;;0.50;0.50;;;;;;;3.23;100.00;98105.56;5439065;26;20968;-59
2024/04/16 05:02:56;;;;;;;0.60;0.60;;;;;;;3.13;100.00;98116.69;5453346;26;20013;-59
2024/04/16 05:05:25;;;;;;;0.60;0.60;;;;;;;3.40;100.00;98113.72;5444612;26;19999;-58
2024/04/16 05:07:54;;;;;;;0.50;0.50;;;;;;;3.34;100.00;98123.34;5447163;26;20075;-59
2024/04/16 05:10:20;;;;;;;0.60;0.60;;;;;;;3.33;100.00;98126.25;5450988;26;20528;-59
2024/04/16 05:12:48;;;;;;;0.50;0.50;;;;;;;3.43;100.00;98115.91;5455691;26;20006;-59
2024/04/16 05:15:14;;;;;;;0.60;0.60;;;;;;;3.40;100.00;98105.78;5457415;26;20069;-59
2024/04/16 05:17:43;;;;;;;0.55;0.55;;;;;;;3.49;100.00;98104.41;5452909;26;20010;-59
2024/04/16 05:20:12;;;;;;;0.60;0.60;;;;;;;3.81;100.00;98102.34;5452115;26;20002;-59
2024/04/16 05:22:45;;;;;;;0.50;0.50;;;;;;;3.84;100.00;98106.38;5452124;26;20021;-59
2024/04/16 05:25:15;;;;;;;0.50;0.50;;;;;;;3.86;100.00;98094.53;5453167;26;20021;-59
2024/04/16 05:27:44;;;;;;;0.50;0.50;;;;;;;3.93;100.00;98105.03;5449564;26;20034;-59
2024/04/16 05:30:10;;;;;;;0.40;0.40;;;;;;;4.15;100.00;98104.50;5460717;26;19998;-58
2024/04/16 05:32:42;;;;;;;0.50;0.50;;;;;;;4.13;100.00;98103.94;5444661;26;20086;-59
2024/04/16 05:35:08;;;;;;;0.60;0.60;;;;;;;4.10;100.00;98094.59;5452674;26;20007;-59
2024/04/16 05:37:37;;;;;;;0.50;0.50;;;;;;;4.24;100.00;98095.16;5454885;26;20054;-59
2024/04/16 05:40:07;;;;;;;0.50;0.50;;;;;;;4.13;100.00;98088.81;5452751;26;21199;-59
2024/04/16 05:42:36;;;;;;;0.50;0.50;;;;;;;4.31;100.00;98103.81;5447215;26;20437;-59
2024/04/16 05:45:06;;;;;;;0.50;0.50;;;;;;;4.22;100.00;98091.94;5458667;26;20002;-59
2024/04/16 05:47:37;;;;;;;0.50;0.50;;;;;;;4.18;100.00;98091.59;5465433;26;20002;-59
2024/04/16 05:50:04;;;;;;;0.50;0.50;;;;;;;4.25;100.00;98097.59;5452882;26;20409;-58
2024/04/16 05:52:33;;;;;;;0.52;0.52;;;;;;;4.51;100.00;98095.53;5453533;26;20100;-59
2024/04/16 05:55:02;;;;;;;0.60;0.60;;;;;;;4.44;100.00;98106.28;5446136;26;20032;-59
2024/04/16 05:57:31;;;;;;;0.50;0.50;;;;;;;4.68;100.00;98103.63;5450439;26;20062;-58
2024/04/16 06:00:04;;;;;;;0.50;0.50;;;;;;;4.76;100.00;98095.28;5445617;26;20007;-59
2024/04/16 06:02:33;;;;;;;0.40;0.40;;;;;;;4.76;100.00;98093.44;5436949;26;20113;-59
2024/04/16 06:04:59;;;;;;;0.50;0.50;;;;;;;4.69;100.00;98098.09;5449120;26;20018;-59
2024/04/16 06:07:28;;;;;;;0.55;0.55;;;;;;;4.70;100.00;98088.28;5459308;26;20065;-59
2024/04/16 06:09:54;;;;;;;0.75;0.75;;;;;;;5.80;100.00;98087.25;5448717;26;20053;-58
2024/04/16 06:12:23;;;;;;;0.70;0.70;;;;;;;6.61;100.00;98092.28;5454240;26;20103;-59
2024/04/16 06:14:52;;;;;;;0.50;0.50;;;;;;;7.25;100.00;98080.34;5451416;26;20373;-59
2024/04/16 06:17:20;;;;;;;0.40;0.40;;;;;;;6.51;100.00;98078.81;5453044;26;19998;-59
2024/04/16 06:19:47;;;;;;;0.43;0.43;;;;;;;6.20;100.00;98078.38;5442472;26;20015;-59
2024/04/16 06:22:18;;;;;;;0.80;0.80;;;;;;;8.16;100.00;98079.63;5453038;26;20006;-59
2024/04/16 06:24:44;;;;;;;0.82;0.82;;;;;;;9.79;91.75;98073.53;5453687;26;20056;-59
2024/04/16 06:27:14;;;;;;;0.20;0.20;;;;;;;9.08;88.22;98066.88;5454594;26;20095;-59
2024/04/16 06:29:41;;;;;;;0.40;0.40;;;;;;;7.99;91.08;98069.09;5458116;26;20656;-59
2024/04/16 06:32:12;;;;;;;0.30;0.30;;;;;;;7.28;100.00;98069.19;5452590;26;20508;-59
2024/04/16 06:34:38;;;;;;;0.30;0.30;;;;;;;7.34;100.00;98068.19;5446111;26;20015;-59
2024/04/16 06:37:07;;;;;;;0.20;0.20;;;;;;;7.62;100.00;98066.34;5448967;26;20007;-59
2024/04/16 06:39:33;;;;;;;0.40;0.40;;;;;;;6.34;100.00;98060.22;5450644;26;20445;-59
2024/04/16 06:42:03;;;;;;;0.30;0.30;;;;;;;6.64;100.00;98043.88;5465173;26;20018;-59
2024/04/16 06:44:29;;;;;;;0.30;0.30;;;;;;;6.43;100.00;98042.78;5456622;26;20002;-59
2024/04/16 06:46:58;;;;;;;0.30;0.30;;;;;;;6.16;100.00;98037.31;5447522;26;20016;-59
2024/04/16 06:49:27;;;;;;;0.35;0.35;;;;;;;6.24;100.00;98033.44;5449883;26;20428;-59
2024/04/16 06:51:56;;;;;;;0.40;0.40;;;;;;;5.98;100.00;98032.25;5443824;26;20088;-59
2024/04/16 06:54:22;;;;;;;0.40;0.40;;;;;;;6.29;100.00;98038.88;5456924;26;20006;-59
2024/04/16 06:56:51;;;;;;;0.40;0.40;;;;;;;6.21;100.00;98042.72;5445640;26;19999;-59
2024/04/16 06:59:17;;;;;;;0.30;0.30;;;;;;;5.97;100.00;98028.00;5482997;26;20002;-59
2024/04/16 07:01:45;;;;;;;0.43;0.43;;;;;;;6.12;100.00;98019.44;5451960;26;20485;-59
2024/04/16 07:04:12;;;;;;;0.40;0.40;;;;;;;5.83;100.00;98003.53;5452466;26;20003;-58
2024/04/16 07:06:44;;;;;;;0.45;0.45;;;;;;;5.98;100.00;98013.63;5449261;26;20007;-59
2024/04/16 07:09:15;;;;;;;0.40;0.40;;;;;;;5.97;100.00;98006.72;5446406;26;20774;-58
2024/04/16 07:11:44;;;;;;;0.40;0.40;;;;;;;5.95;100.00;98003.50;5462611;26;20016;-59
2024/04/16 07:14:15;;;;;;;0.30;0.30;;;;;;;5.81;100.00;97994.97;5453047;26;20433;-59
2024/04/16 07:16:42;;;;;;;0.40;0.40;;;;;;;6.00;100.00;97990.28;5456129;26;20062;-59
2024/04/16 07:19:10;;;;;;;0.40;0.40;;;;;;;5.85;100.00;97993.47;5458751;26;20021;-59
2024/04/16 07:21:37;;;;;;;0.40;0.40;;;;;;;5.80;100.00;97985.41;5454911;26;20002;-59
2024/04/16 07:24:08;;;;;;;0.43;0.43;;;;;;;5.72;100.00;97978.63;5458119;26;20029;-59
2024/04/16 07:26:35;;;;;;;0.40;0.40;;;;;;;5.79;100.00;97979.28;5451855;26;20014;-59
2024/04/16 07:29:07;;;;;;;0.40;0.40;;;;;;;5.91;100.00;97981.84;5458233;26;20016;-59
2024/04/16 07:31:36;;;;;;;0.40;0.40;;;;;;;5.74;100.00;97971.22;5448932;26;20014;-59
2024/04/16 07:34:07;;;;;;;0.50;0.50;;;;;;;5.72;100.00;97968.00;5465792;26;20002;-59
2024/04/16 07:36:34;;;;;;;0.50;0.50;;;;;;;5.59;100.00;97973.63;5456738;26;20006;-59
2024/04/16 07:39:03;;;;;;;0.40;0.40;;;;;;;5.41;100.00;97967.47;5449396;26;20007;-59
2024/04/16 07:41:32;;;;;;;0.40;0.40;;;;;;;5.50;100.00;97965.25;5462647;26;20014;-59
2024/04/16 07:44:03;;;;;;;0.40;0.40;;;;;;;5.35;100.00;97955.16;5450766;26;20437;-59
2024/04/16 07:46:33;;;;;;;0.45;0.45;;;;;;;5.44;100.00;97946.78;5432181;26;20721;-60
2024/04/16 07:49:02;;;;;;;0.47;0.47;;;;;;;5.26;100.00;97943.31;5384830;26;20772;-59
2024/04/16 07:51:28;;;;;;;0.40;0.40;;;;;;;5.27;100.00;97929.00;5376874;26;20243;-59
2024/04/16 07:53:57;;;;;;;0.43;0.43;;;;;;;5.30;100.00;97923.19;5384105;26;20004;-59
2024/04/16 07:56:23;;;;;;;0.40;0.40;;;;;;;5.16;100.00;97933.31;5394088;26;20000;-59
2024/04/16 07:58:54;;;;;;;0.47;0.47;;;;;;;5.04;100.00;97939.72;5376452;26;20016;-59
2024/04/16 08:01:20;;;;;;;0.40;0.40;;;;;;;5.28;100.00;97940.41;5392749;26;20022;-59
2024/04/16 08:03:49;;;;;;;0.40;0.40;;;;;;;5.10;100.00;97941.44;5373527;26;20007;-59
2024/04/16 08:06:19;;;;;;;0.40;0.40;;;;;;;5.03;100.00;97932.81;5398378;26;20018;-58
2024/04/16 08:08:51;;;;;;;0.50;0.50;;;;;;;5.09;100.00;97926.53;5378850;26;20015;-58
2024/04/16 08:11:20;;;;;;;0.40;0.40;;;;;;;5.02;100.00;97923.22;5393250;26;20000;-59
2024/04/16 08:13:51;;;;;;;0.40;0.40;;;;;;;5.11;100.00;97924.44;5386313;26;20015;-59
2024/04/16 08:16:23;;;;;;;0.43;0.43;;;;;;;5.19;100.00;97932.03;5386552;26;20787;-59
2024/04/16 08:18:54;;;;;;;0.50;0.50;;;;;;;5.27;100.00;97939.63;5375032;26;20071;-59
2024/04/16 08:21:20;;;;;;;0.50;0.50;;;;;;;5.31;100.00;97930.09;5388798;26;20004;-59
2024/04/16 08:23:50;;;;;;;0.40;0.40;;;;;;;5.31;100.00;97934.63;5391337;26;20039;-59
2024/04/16 08:26:16;;;;;;;0.40;0.40;;;;;;;5.40;100.00;97941.97;5387127;26;20525;-59
2024/04/16 08:28:48;;;;;;;0.40;0.40;;;;;;;5.44;100.00;97938.81;5394939;26;20000;-59
2024/04/16 08:31:19;;;;;;;0.50;0.50;;;;;;;5.56;100.00;97939.56;5332342;26;107162;-59
2024/04/16 08:35:48;;;;;;;0.40;0.40;;;;;;;5.61;100.00;97940.44;5373074;26;20370;-59
2024/04/16 08:38:18;;;;;;;0.50;0.50;;;;;;;5.68;100.00;97948.25;5338992;26;20331;-58
2024/04/16 08:40:49;;;;;;;0.50;0.50;;;;;;;5.76;100.00;97947.03;5337049;26;20080;-58
2024/04/16 08:43:20;;;;;;;0.47;0.47;;;;;;;5.77;100.00;97944.16;5341644;26;20059;-58
2024/04/16 08:45:50;;;;;;;0.50;0.50;;;;;;;5.74;100.00;97938.50;5340388;26;20029;-58
2024/04/16 08:48:18;;;;;;;0.50;0.50;;;;;;;6.14;100.00;97950.81;5345453;26;20004;-59
2024/04/16 08:50:51;;;;;;;0.40;0.40;;;;;;;6.13;100.00;97968.63;5336671;26;20348;-58
2024/04/16 08:53:18;;;;;;;0.50;0.50;;;;;;;6.13;100.00;97963.31;5338636;26;20019;-59
2024/04/16 08:55:48;;;;;;;0.45;0.45;;;;;;;6.32;100.00;97969.19;5343820;26;20071;-59
2024/04/16 08:58:16;;;;;;;0.50;0.50;;;;;;;6.28;100.00;97969.91;5330552;26;20525;-59
2024/04/16 09:00:46;;;;;;;0.40;0.40;;;;;;;6.36;100.00;97966.81;5339669;26;20005;-59
2024/04/16 09:03:14;;;;;;;0.45;0.45;;;;;;;6.40;100.00;97974.06;5330684;26;20009;-59
2024/04/16 09:05:44;;;;;;;0.35;0.35;;;;;;;6.67;100.00;97973.38;5343848;26;20024;-59
2024/04/16 09:08:14;;;;;;;0.40;0.40;;;;;;;6.43;100.00;97972.78;5367683;26;20004;-59
2024/04/16 09:10:44;;;;;;;0.30;0.30;;;;;;;6.65;100.00;97976.25;5332548;26;20001;-59
2024/04/16 09:13:12;;;;;;;0.47;0.47;;;;;;;6.74;100.00;97967.84;5343695;26;20024;-59
2024/04/16 09:15:42;;;;;;;0.30;0.30;;;;;;;6.75;100.00;97975.59;5332859;26;20099;-59
2024/04/16 09:18:10;;;;;;;0.40;0.40;;;;;;;7.04;100.00;97973.53;5337994;26;19997;-59
2024/04/16 09:20:40;;;;;;;0.40;0.40;;;;;;;7.07;100.00;97962.38;5336244;26;20398;-59
2024/04/16 09:23:07;;;;;;;0.50;0.50;;;;;;;7.79;100.00;97981.69;5343391;26;20000;-59
2024/04/16 09:25:43;;;;;;;0.30;0.30;;;;;;;7.86;100.00;97976.97;5336154;26;20355;-59
2024/04/16 09:28:13;;;;;;;0.40;0.40;;;;;;;7.41;100.00;97977.34;5342285;26;20534;-58
2024/04/16 09:30:44;;;;;;;0.30;0.30;;;;;;;7.65;100.00;97977.84;5335175;26;20024;-58
2024/04/16 09:33:11;;;;;;;0.30;0.30;;;;;;;7.41;100.00;97977.34;5336669;26;20008;-58
2024/04/16 09:35:44;;;;;;;0.35;0.35;;;;;;;7.50;100.00;97981.97;5338859;26;20341;-58
2024/04/16 09:38:11;;;;;;;0.40;0.40;;;;;;;7.70;100.00;97985.88;5330925;26;19997;-58
2024/04/16 09:40:44;;;;;;;0.30;0.30;;;;;;;7.99;100.00;97987.19;5307135;26;20005;-58
2024/04/16 09:43:11;;;;;;;0.40;0.40;;;;;;;8.30;100.00;97974.03;5343541;26;20011;-58
2024/04/16 09:45:42;;;;;;;0.30;0.30;;;;;;;8.66;100.00;97976.91;5327654;26;19998;-58
2024/04/16 09:48:09;;;;;;;0.20;0.20;;;;;;;8.30;100.00;97984.72;5328406;26;19997;-58
2024/04/16 09:50:39;;;;;;;0.30;0.30;;;;;;;8.16;100.00;97986.22;5321019;26;20111;-58
2024/04/16 09:53:08;;;;;;;0.30;0.30;;;;;;;8.14;100.00;97978.47;5329777;26;20079;-58
2024/04/16 09:55:38;;;;;;;0.20;0.20;;;;;;;8.43;100.00;97978.13;5318853;26;20011;-60
2024/04/16 09:58:08;;;;;;;0.30;0.30;;;;;;;8.57;100.00;97981.97;5316576;26;20574;-58
2024/04/16 10:00:38;;;;;;;0.40;0.40;;;;;;;8.48;100.00;97990.72;5322909;26;20016;-59
2024/04/16 10:03:06;;;;;;;0.30;0.30;;;;;;;8.59;100.00;97987.84;5320739;26;20023;-59
2024/04/16 10:05:36;;;;;;;0.30;0.30;;;;;;;8.90;100.00;97977.28;5318930;26;20023;-58
2024/04/16 10:08:05;;;;;;;0.40;0.40;;;;;;;8.68;100.00;97974.78;5326164;26;20057;-60
2024/04/16 10:10:35;;;;;;;0.20;0.20;;;;;;;8.93;100.00;97982.09;5320945;26;20006;-59
2024/04/16 10:13:06;;;;;;;0.30;0.30;;;;;;;8.80;100.00;97966.56;5327019;26;20529;-58
2024/04/16 10:15:37;;;;;;;0.20;0.20;;;;;;;8.74;100.00;97972.97;5321262;26;20078;-58
2024/04/16 10:18:11;;;;;;;0.30;0.30;;;;;;;8.97;99.49;97977.84;5330746;26;20689;-58
2024/04/16 10:20:47;;;;;;;0.25;0.25;;;;;;;8.95;98.27;97977.31;5325904;26;20877;-58
2024/04/16 10:23:18;;;;;;;0.30;0.30;;;;;;;8.92;99.15;97985.06;5320641;26;20513;-59
2024/04/16 10:25:48;;;;;;;0.30;0.30;;;;;;;9.03;98.73;97976.00;5323049;26;20021;-59
2024/04/16 10:28:24;;;;;;;0.28;0.28;;;;;;;8.99;98.79;97970.38;5316749;26;20722;-59
2024/04/16 10:31:00;;;;;;;0.30;0.30;;;;;;;8.85;96.76;97964.72;5324716;26;20448;-59
2024/04/16 10:33:30;;;;;;;0.30;0.30;;;;;;;8.93;94.94;97970.63;5320601;26;20000;-59
2024/04/16 10:35:58;;;;;;;0.25;0.25;;;;;;;8.92;96.28;97969.03;5321074;26;20320;-59
2024/04/16 10:38:28;;;;;;;0.20;0.20;;;;;;;8.90;96.44;97976.50;5322174;26;20005;-59
2024/04/16 10:40:56;;;;;;;0.30;0.30;;;;;;;9.00;96.49;97976.53;5324451;26;20078;-58
2024/04/16 10:43:26;;;;;;;0.20;0.20;;;;;;;9.02;94.96;97969.06;5324631;26;20000;-59
2024/04/16 10:45:54;;;;;;;0.28;0.28;;;;;;;8.97;97.15;97969.84;5320034;26;19998;-59
2024/04/16 10:48:27;;;;;;;0.30;0.30;;;;;;;8.97;96.10;97967.16;5318507;26;20019;-59
2024/04/16 10:50:54;;;;;;;0.20;0.20;;;;;;;8.91;97.02;97984.25;5322572;26;20001;-58
2024/04/16 10:53:25;;;;;;;0.25;0.25;;;;;;;9.00;94.62;97979.19;5323169;26;20585;-59
2024/04/16 10:55:52;;;;;;;0.20;0.20;;;;;;;9.34;93.60;97989.47;5320844;26;20009;-59
2024/04/16 10:58:22;;;;;;;0.17;0.17;;;;;;;9.21;93.83;97980.88;5326824;26;20035;-59
2024/04/16 11:00:53;;;;;;;0.20;0.20;;;;;;;8.99;94.14;97980.28;5326844;26;20004;-59
2024/04/16 11:03:23;;;;;;;0.20;0.20;;;;;;;8.95;96.00;97981.84;5324720;26;20070;-59
2024/04/16 11:05:55;;;;;;;0.30;0.30;;;;;;;8.87;95.63;97987.72;5320158;26;20075;-59
2024/04/16 11:08:26;;;;;;;0.22;0.22;;;;;;;8.77;93.50;97988.47;5320742;26;21075;-60
2024/04/16 11:10:53;;;;;;;;;;;;;;;8.93;94.24;97992.00;5320511;26;20017;-59
2024/04/16 11:13:23;;;;;;;0.30;0.30;;;;;;;8.91;94.13;98004.81;5322067;26;20661;-59
2024/04/16 11:15:51;;;;;;;0.30;0.30;;;;;;;8.88;94.55;97990.09;5320538;26;21087;-59
2024/04/16 11:18:22;;;;;;;0.20;0.20;;;;;;;8.91;95.20;97994.94;5327023;26;20776;-59
2024/04/16 11:20:49;;;;;;;0.22;0.22;;;;;;;8.91;92.70;98002.97;5323737;26;20083;-59
2024/04/16 11:23:22;;;;;;;0.30;0.30;;;;;;;9.19;91.70;98014.28;5319002;26;20001;-59
2024/04/16 11:25:51;;;;;;;0.25;0.25;;;;;;;9.07;93.47;98003.81;5312890;26;20870;-59
2024/04/16 11:28:21;;;;;;;0.30;0.30;;;;;;;9.00;93.03;98011.25;5323251;26;20012;-59
2024/04/16 11:30:54;;;;;;;0.20;0.20;;;;;;;8.88;93.01;98010.69;5311658;26;20001;-59
2024/04/16 11:33:26;;;;;;;0.30;0.30;;;;;;;8.94;93.63;98015.78;5325634;26;20001;-59
2024/04/16 11:36:01;;;;;;;0.20;0.20;;;;;;;9.05;96.67;98008.59;5321007;26;20010;-59
2024/04/16 11:38:35;;;;;;;0.20;0.20;;;;;;;9.19;94.65;98004.38;5321802;26;20643;-59
2024/04/16 11:41:02;;;;;;;0.30;0.30;;;;;;;9.38;90.64;98006.56;5321120;26;20802;-59
2024/04/16 11:43:33;;;;;;;0.30;0.30;;;;;;;9.41;90.80;98003.34;5327512;26;20005;-60